createdAt,value
2022-12-14T00:01:21.867Z,99782.88
2022-12-14T00:03:26.566Z,99784.48
2022-12-14T00:05:31.155Z,99779.06
2022-12-14T00:07:35.463Z,99768.52
2022-12-14T00:09:39.754Z,99759.53
2022-12-14T00:11:44.026Z,99753.54
2022-12-14T00:13:49.894Z,99754.44
2022-12-14T00:15:54.304Z,99757.25
2022-12-14T00:17:58.662Z,99755
2022-12-14T00:20:02.978Z,99753.23
2022-12-14T00:22:07.269Z,99750.06
2022-12-14T00:24:11.619Z,99751.36
2022-12-14T00:26:15.921Z,99749.13
2022-12-14T00:28:20.220Z,99753.93
2022-12-14T00:30:24.485Z,99757.64
2022-12-14T00:32:28.820Z,99756.63
2022-12-14T00:34:33.115Z,99751.31
2022-12-14T00:36:37.438Z,99751.15
2022-12-14T00:38:41.721Z,99754.8
2022-12-14T00:40:45.998Z,99749.25
2022-12-14T00:42:50.335Z,99749.89
2022-12-14T00:44:54.641Z,99749.11
2022-12-14T00:46:58.960Z,99749.23
2022-12-14T00:49:03.254Z,99750.99
2022-12-14T00:51:07.554Z,99751.8
2022-12-14T00:53:11.855Z,99749.14
2022-12-14T00:55:16.322Z,99751.26
2022-12-14T00:57:20.589Z,99750.23
2022-12-14T00:59:28.335Z,99742.09
2022-12-14T01:01:33.059Z,99743.95
2022-12-14T01:03:37.869Z,99743.17
2022-12-14T01:05:42.331Z,99740.94
2022-12-14T01:07:53.523Z,99737.91
2022-12-14T01:09:57.815Z,99735.41
2022-12-14T01:12:02.093Z,99734.44
2022-12-14T01:14:06.437Z,99740
2022-12-14T01:16:10.923Z,99743.53
2022-12-14T01:18:15.424Z,99740.45
2022-12-14T01:20:19.694Z,99748.23
2022-12-14T01:22:23.984Z,99745.23
2022-12-14T01:24:28.255Z,99741.13
2022-12-14T01:26:32.581Z,99742
2022-12-14T01:28:36.874Z,99741.66
2022-12-14T01:30:41.140Z,99737.9
2022-12-14T01:32:45.453Z,99729.95
2022-12-14T01:34:49.747Z,99729.98
2022-12-14T01:36:54.004Z,99722.59
2022-12-14T01:38:58.358Z,99726.62
2022-12-14T01:41:02.644Z,99723.99
2022-12-14T01:43:06.939Z,99721.41
2022-12-14T01:45:11.222Z,99720.02
2022-12-14T01:47:15.521Z,99718.39
2022-12-14T01:49:19.784Z,99713.98
2022-12-14T01:51:24.083Z,99716.2
2022-12-14T01:53:29.252Z,99712.8
2022-12-14T01:55:33.930Z,99711.25
2022-12-14T01:57:38.199Z,99711.23
2022-12-14T01:59:42.538Z,99716.02
2022-12-14T02:01:49.403Z,99713.63
2022-12-14T02:03:54.046Z,99713.47
2022-12-14T02:05:58.345Z,99705.97
2022-12-14T02:08:02.638Z,99704.36
2022-12-14T02:10:06.906Z,99698.94
2022-12-14T02:12:11.200Z,99696.67
2022-12-14T02:14:15.493Z,99688.41
2022-12-14T02:16:20.144Z,99688.34
2022-12-14T02:18:24.621Z,99688.02
2022-12-14T02:20:28.906Z,99687.38
2022-12-14T02:22:33.204Z,99687.41
2022-12-14T02:24:37.526Z,99688.59
2022-12-14T02:26:41.781Z,99685.08
2022-12-14T02:28:46.085Z,99685.91
2022-12-14T02:30:50.370Z,99686.26
2022-12-14T02:32:54.680Z,99686.98
2022-12-14T02:34:58.951Z,99686.34
2022-12-14T02:37:03.271Z,99682.69
2022-12-14T02:39:07.612Z,99679.06
2022-12-14T02:41:11.892Z,99676.08
2022-12-14T02:44:48.918Z,99674
2022-12-14T02:46:53.278Z,99674.74
2022-12-14T02:48:57.680Z,99671.11
2022-12-14T02:51:01.980Z,99666.97
2022-12-14T02:53:06.336Z,99665.6
2022-12-14T02:55:10.636Z,99665.57
2022-12-14T02:57:14.934Z,99668.89
2022-12-14T02:59:19.239Z,99669.8
2022-12-14T03:01:23.964Z,99670.58
2022-12-14T03:03:29.520Z,99669.34
2022-12-14T03:05:34.915Z,99666.63
2022-12-14T03:07:39.506Z,99667.25
2022-12-14T03:09:43.788Z,99664.22
2022-12-14T03:11:48.096Z,99665.37
2022-12-14T03:13:52.382Z,99663.8
2022-12-14T03:15:56.824Z,99662.64
2022-12-14T03:18:01.272Z,99658.19
2022-12-14T03:20:05.555Z,99659
2022-12-14T03:22:09.824Z,99657.08
2022-12-14T03:24:14.481Z,99661.19
2022-12-14T03:26:18.744Z,99655
2022-12-14T03:28:23.060Z,99652.19
2022-12-14T03:31:00.739Z,99656.23
2022-12-14T03:33:05.256Z,99650.29
2022-12-14T03:35:10.963Z,99654.47
2022-12-14T03:37:15.242Z,99653.26
2022-12-14T03:39:19.527Z,99652.27
2022-12-14T03:41:23.818Z,99649.66
2022-12-14T03:43:29.008Z,99650.57
2022-12-14T03:45:34.299Z,99653.95
2022-12-14T03:47:38.715Z,99650.7
2022-12-14T03:49:43.043Z,99653.89
2022-12-14T03:51:47.377Z,99649.14
2022-12-14T03:53:51.622Z,99649.27
2022-12-14T03:55:55.927Z,99648.13
2022-12-14T03:58:00.196Z,99647.84
2022-12-14T04:00:04.521Z,99649.3
2022-12-14T04:02:09.246Z,99643.56
2022-12-14T04:04:13.707Z,99644.84
2022-12-14T04:06:18.011Z,99641.38
2022-12-14T04:08:22.268Z,99639.39
2022-12-14T04:10:26.575Z,99633.14
2022-12-14T04:12:30.900Z,99629.63
2022-12-14T04:14:35.210Z,99621.42
2022-12-14T04:16:39.634Z,99608.69
2022-12-14T04:18:44.035Z,99610.28
2022-12-14T04:20:48.352Z,99608.2
2022-12-14T04:22:52.676Z,99606.95
2022-12-14T04:24:56.982Z,99607.25
2022-12-14T04:27:01.403Z,99607.7
2022-12-14T04:29:05.660Z,99606.38
2022-12-14T04:31:09.962Z,99600.4
2022-12-14T04:33:14.274Z,99600.49
2022-12-14T04:35:18.580Z,99596.17
2022-12-14T04:37:22.888Z,99594.47
2022-12-14T04:39:27.171Z,99594.97
2022-12-14T04:41:31.467Z,99598.75
2022-12-14T04:43:35.779Z,99601.05
2022-12-14T04:45:40.179Z,99608.14
2022-12-14T04:47:44.698Z,99605.2
2022-12-14T04:49:50.287Z,99603.5
2022-12-14T04:51:54.573Z,99601.73
2022-12-14T04:54:03.893Z,99599.61
2022-12-14T04:56:08.186Z,99598.97
2022-12-14T04:58:12.495Z,99595.45
2022-12-14T05:00:16.776Z,99591.13
2022-12-14T05:02:21.479Z,99587.25
2022-12-14T05:04:26.206Z,99586.63
2022-12-14T05:06:30.501Z,99588.02
2022-12-14T05:08:34.790Z,99576.69
2022-12-14T05:10:39.101Z,99578.05
2022-12-14T05:12:43.414Z,99573.22
2022-12-14T05:14:47.729Z,99574.62
2022-12-14T05:16:52.170Z,99574.71
2022-12-14T05:18:57.880Z,99572.24
2022-12-14T05:21:02.183Z,99574.66
2022-12-14T05:23:06.442Z,99574.79
2022-12-14T05:25:10.774Z,99576.84
2022-12-14T05:27:15.063Z,99573.83
2022-12-14T05:29:19.364Z,99572.48
2022-12-14T05:31:23.688Z,99573.95
2022-12-14T05:33:28.806Z,99575.36
2022-12-14T05:35:33.922Z,99571.19
2022-12-14T05:37:38.223Z,99568.42
2022-12-14T05:39:42.528Z,99562.22
2022-12-14T05:41:46.835Z,99564.27
2022-12-14T05:43:51.138Z,99558.63
2022-12-14T05:45:55.502Z,99552.97
2022-12-14T05:47:59.927Z,99551.2
2022-12-14T05:50:04.211Z,99546.92
2022-12-14T05:52:08.556Z,99542.97
2022-12-14T05:54:12.966Z,99544.64
2022-12-14T05:56:17.365Z,99542.49
2022-12-14T05:58:21.631Z,99547.71
2022-12-14T06:00:25.909Z,99549.22
2022-12-14T06:02:30.620Z,99549.66
2022-12-14T06:04:35.334Z,99551.33
2022-12-14T06:06:39.739Z,99546.84
2022-12-14T06:08:44.046Z,99544.27
2022-12-14T06:10:48.355Z,99546.47
2022-12-14T06:12:52.627Z,99546.34
2022-12-14T06:14:57.449Z,99542.13
2022-12-14T06:17:01.764Z,99543.03
2022-12-14T06:19:06.046Z,99543.44
2022-12-14T06:21:10.363Z,99547.19
2022-12-14T06:23:14.674Z,99538.27
2022-12-14T06:25:18.940Z,99534.44
2022-12-14T06:27:23.218Z,99539.45
2022-12-14T06:29:27.515Z,99536.46
2022-12-14T06:31:32.006Z,99531.88
2022-12-14T06:33:36.487Z,99537.45
2022-12-14T06:35:40.764Z,99533.44
2022-12-14T06:37:49.992Z,99526.24
2022-12-14T06:39:55.658Z,99521.13
2022-12-14T06:41:59.938Z,99516.22
2022-12-14T06:44:04.238Z,99517.82
2022-12-14T06:46:16.116Z,99512.21
2022-12-14T06:48:20.643Z,99515.98
2022-12-14T06:50:25.010Z,99519.31
2022-12-14T06:52:29.571Z,99517.7
2022-12-14T06:54:33.928Z,99512.14
2022-12-14T06:56:38.253Z,99510.35
2022-12-14T06:58:42.558Z,99516.45
2022-12-14T07:00:46.876Z,99519.36
2022-12-14T07:02:51.753Z,99519.46
2022-12-14T07:04:56.524Z,99518.58
2022-12-14T07:07:00.828Z,99515.16
2022-12-14T07:09:05.138Z,99514.98
2022-12-14T07:11:09.423Z,99516.11
2022-12-14T07:13:13.735Z,99519.83
2022-12-14T07:15:18.052Z,99516.38
2022-12-14T07:17:22.446Z,99517.18
2022-12-14T07:19:26.805Z,99516.19
2022-12-14T07:21:31.100Z,99511.67
2022-12-14T07:23:36.590Z,99509.31
2022-12-14T07:25:40.935Z,99512.94
2022-12-14T07:27:45.203Z,99501.94
2022-12-14T07:29:49.524Z,99502.41
2022-12-14T07:31:53.780Z,99503.78
2022-12-14T07:33:58.098Z,99499.84
2022-12-14T07:36:02.370Z,99496.98
2022-12-14T07:38:07.005Z,99494.13
2022-12-14T07:40:11.333Z,99496.94
2022-12-14T07:42:15.670Z,99493.67
2022-12-14T07:44:19.979Z,99493.58
2022-12-14T07:46:24.525Z,99496.44
2022-12-14T07:48:29.083Z,99488.98
2022-12-14T07:50:33.385Z,99492.38
2022-12-14T07:52:38.718Z,99499.94
2022-12-14T07:54:43.051Z,99486.59
2022-12-14T07:56:47.358Z,99482.7
2022-12-14T07:58:53.109Z,99482.25
2022-12-14T08:00:57.470Z,99478.8
2022-12-14T08:03:01.758Z,99478.48
2022-12-14T08:05:12.719Z,99485.92
2022-12-14T08:07:17.196Z,99488.59
2022-12-14T08:09:21.497Z,99487.84
2022-12-14T08:11:25.791Z,99488.07
2022-12-14T08:13:31.564Z,99481.59
2022-12-14T08:15:36.521Z,99480.75
2022-12-14T08:17:40.831Z,99481.64
2022-12-14T08:19:45.120Z,99478.39
2022-12-14T08:21:49.456Z,99479.8
2022-12-14T08:23:53.798Z,99482.23
2022-12-14T08:25:58.432Z,99481.73
2022-12-14T08:28:02.798Z,99479.84
2022-12-14T08:30:07.354Z,99481.48
2022-12-14T08:32:11.662Z,99486.58
2022-12-14T08:34:15.951Z,99482.42
2022-12-14T08:36:20.228Z,99475.69
2022-12-14T08:38:24.527Z,99475.92
2022-12-14T08:40:28.846Z,99477.86
2022-12-14T08:42:33.122Z,99478.52
2022-12-14T08:44:37.405Z,99480.08
2022-12-14T08:46:41.826Z,99468.42
2022-12-14T08:48:46.168Z,99466.56
2022-12-14T08:50:51.099Z,99467.16
2022-12-14T08:52:55.397Z,99468.5
2022-12-14T08:54:59.681Z,99464.19
2022-12-14T08:57:04.001Z,99462.72
2022-12-14T08:59:08.309Z,99467.49
2022-12-14T09:01:33.215Z,99474.16
2022-12-14T09:03:38.813Z,99471.23
2022-12-14T09:05:43.125Z,99471.13
2022-12-14T09:07:47.479Z,99476.48
2022-12-14T09:09:51.812Z,99464.7
2022-12-14T09:11:56.117Z,99460.22
2022-12-14T09:14:00.414Z,99463.02
2022-12-14T09:16:04.950Z,99455.27
2022-12-14T09:18:09.378Z,99455.85
2022-12-14T09:20:13.687Z,99447.11
2022-12-14T09:22:18.663Z,99444.95
2022-12-14T09:24:23.234Z,99440.42
2022-12-14T09:26:27.716Z,99430.13
2022-12-14T09:28:32.049Z,99428.61
2022-12-14T09:30:36.365Z,99426.34
2022-12-14T09:32:40.689Z,99421.11
2022-12-14T09:34:44.993Z,99413.16
2022-12-14T09:36:49.293Z,99410.64
2022-12-14T09:38:53.983Z,99406.16
2022-12-14T09:40:59.065Z,99400.06
2022-12-14T09:43:03.497Z,99397.41
2022-12-14T09:45:07.789Z,99394.55
2022-12-14T09:47:12.230Z,99390.83
2022-12-14T09:49:16.533Z,99388.63
2022-12-14T09:51:20.908Z,99386.42
2022-12-14T09:53:25.452Z,99390.06
2022-12-14T09:55:30.064Z,99380.69
2022-12-14T09:57:34.428Z,99383.19
2022-12-14T09:59:38.782Z,99386.55
2022-12-14T10:02:06.948Z,99377.73
2022-12-14T10:04:34.831Z,99378.67
2022-12-14T10:06:39.321Z,99378.56
2022-12-14T10:08:43.731Z,99365.17
2022-12-14T10:10:51.649Z,99363.1
2022-12-14T10:12:55.956Z,99363.17
2022-12-14T10:15:21.066Z,99359.98
2022-12-14T10:17:25.502Z,99353.13
2022-12-14T10:19:29.828Z,99352.92
2022-12-14T10:21:34.126Z,99347.45
2022-12-14T10:23:38.485Z,99339.31
2022-12-14T10:25:42.804Z,99336.92
2022-12-14T10:28:12.251Z,99333.02
2022-12-14T10:30:16.747Z,99336.23
2022-12-14T10:32:21.242Z,99332.07
2022-12-14T10:34:25.643Z,99326.42
2022-12-14T10:36:29.957Z,99320.28
2022-12-14T10:38:34.836Z,99320.03
2022-12-14T10:40:39.199Z,99321.74
2022-12-14T10:42:50.254Z,99326.17
2022-12-14T10:45:39.552Z,99313.11
2022-12-14T10:47:45.868Z,99308.72
2022-12-14T10:49:50.207Z,99302.75
2022-12-14T10:51:54.537Z,99300.36
2022-12-14T10:53:58.836Z,99304.28
2022-12-14T10:56:03.271Z,99293.3
2022-12-14T10:58:07.695Z,99285.55
2022-12-14T11:00:13.551Z,99280.56
2022-12-14T11:02:27.640Z,99268.72
2022-12-14T11:04:32.448Z,99270.7
2022-12-14T11:06:36.812Z,99270.45
2022-12-14T11:08:41.474Z,99267.26
2022-12-14T11:10:45.791Z,99262.03
2022-12-14T11:12:50.113Z,99262.16
2022-12-14T11:14:54.420Z,99262.91
2022-12-14T11:16:58.957Z,99254.14
2022-12-14T11:19:03.527Z,99250.61
2022-12-14T11:21:07.821Z,99241.91
2022-12-14T11:23:12.175Z,99241.73
2022-12-14T11:25:16.592Z,99252.48
2022-12-14T11:27:20.904Z,99237.77
2022-12-14T11:29:25.291Z,99229.73
2022-12-14T11:31:30.020Z,99225.53
2022-12-14T11:33:34.390Z,99217.55
2022-12-14T11:35:38.685Z,99215.73
2022-12-14T11:37:43.006Z,99217.84
2022-12-14T11:39:50.601Z,99218.47
2022-12-14T11:41:54.919Z,99217.2
2022-12-14T11:43:59.256Z,99209.81
2022-12-14T11:46:03.929Z,99192.83
2022-12-14T11:48:08.272Z,99195.05
2022-12-14T11:50:12.595Z,99191.23
2022-12-14T11:52:16.974Z,99190.41
2022-12-14T11:54:21.288Z,99189.48
2022-12-14T11:56:25.580Z,99186.47
2022-12-14T11:58:31.122Z,99184.86
2022-12-14T12:00:36.284Z,99187.09
2022-12-14T12:02:41.052Z,99185.49
2022-12-14T12:04:45.478Z,99180.44
2022-12-14T12:06:49.800Z,99179.07
2022-12-14T12:08:54.058Z,99175.03
2022-12-14T12:11:02.995Z,99164.03
2022-12-14T12:13:07.361Z,99164.02
2022-12-14T12:15:11.727Z,99163.04
2022-12-14T12:17:16.071Z,99158.6
2022-12-14T12:19:20.397Z,99149.39
2022-12-14T12:21:24.672Z,99151.1
2022-12-14T12:23:29.915Z,99134.14
2022-12-14T12:25:38.703Z,99128.48
2022-12-14T12:27:43.062Z,99123.83
2022-12-14T12:29:47.389Z,99117.84
2022-12-14T12:31:51.657Z,99112.69
2022-12-14T12:33:55.961Z,99102.22
2022-12-14T12:36:00.263Z,99099
2022-12-14T12:38:04.588Z,99096.44
2022-12-14T12:40:08.989Z,99089.94
2022-12-14T12:42:13.409Z,99083.41
2022-12-14T12:44:17.720Z,99080.84
2022-12-14T12:46:22.125Z,99079.52
2022-12-14T12:48:27.101Z,99071.96
2022-12-14T12:50:32.276Z,99070.4
2022-12-14T12:52:36.558Z,99072
2022-12-14T12:54:40.919Z,99073.91
2022-12-14T12:56:49.192Z,99074.5
2022-12-14T12:58:54.465Z,99069.8
2022-12-14T13:00:58.796Z,99070.69
2022-12-14T13:03:03.589Z,99069.86
2022-12-14T13:05:47.549Z,99067.31
2022-12-14T13:07:52.825Z,99073.09
2022-12-14T13:10:06.022Z,99069.05
2022-12-14T13:12:10.549Z,99057.8
2022-12-14T13:14:14.878Z,99056.66
2022-12-14T13:16:27.532Z,99049.28
2022-12-14T13:21:58.119Z,99039.82
2022-12-14T13:24:10.643Z,99040.66
2022-12-14T13:26:57.038Z,99034.23
2022-12-14T13:29:02.847Z,99035.12
2022-12-14T13:31:07.776Z,99030.63
2022-12-14T13:33:12.301Z,99022.81
2022-12-14T13:35:16.789Z,99019.42
2022-12-14T13:37:21.092Z,99018.69
2022-12-14T13:39:25.417Z,99017.25
2022-12-14T13:41:29.756Z,99025.31
2022-12-14T13:43:34.118Z,99027.64
2022-12-14T13:45:38.457Z,99030.25
2022-12-14T13:47:42.949Z,99026.85
2022-12-14T13:50:35.183Z,99028.17
2022-12-14T13:52:43.092Z,99024.23
2022-12-14T13:54:47.452Z,99025.99
2022-12-14T13:56:51.745Z,99024.28
2022-12-14T13:58:56.058Z,99016.85
2022-12-14T14:01:00.369Z,99019.31
2022-12-14T14:03:04.966Z,99014.19
2022-12-14T14:05:09.591Z,99006.41
2022-12-14T14:07:13.863Z,99006.84
2022-12-14T14:09:18.214Z,99007.12
2022-12-14T14:11:39.072Z,98999.09
2022-12-14T14:13:43.740Z,98986.38
2022-12-14T14:16:28.890Z,98988.75
2022-12-14T14:18:34.522Z,98981.63
2022-12-14T14:20:38.921Z,98983.25
2022-12-14T14:22:43.201Z,98978.98
2022-12-14T14:24:47.482Z,98977.48
2022-12-14T14:26:51.897Z,98978.22
2022-12-14T14:28:56.241Z,98978.28
2022-12-14T14:31:00.817Z,98972.92
2022-12-14T14:33:46.368Z,98969.24
2022-12-14T14:35:52.634Z,98971.66
2022-12-14T14:37:57.117Z,98966.27
2022-12-14T14:40:21.900Z,98965.88
2022-12-14T14:42:47.575Z,98962.52
2022-12-14T14:44:51.896Z,98962.91
2022-12-14T14:46:56.304Z,98963.47
2022-12-14T14:49:00.782Z,98969.44
2022-12-14T14:51:05.293Z,98972.2
2022-12-14T14:53:09.619Z,98973.96
2022-12-14T14:55:53.920Z,98972.34
2022-12-14T14:57:59.083Z,98982.63
2022-12-14T15:00:04.190Z,98976.28
2022-12-14T15:02:08.601Z,98969.28
2022-12-14T15:04:16.943Z,98965.39
2022-12-14T15:06:27.123Z,98967.72
2022-12-14T15:08:32.509Z,98970.95
2022-12-14T15:10:37.368Z,98970.44
2022-12-14T15:12:41.675Z,98967.22
2022-12-14T15:14:49.881Z,98970.55
2022-12-14T15:16:54.235Z,98963.94
2022-12-14T15:18:58.539Z,98959.27
2022-12-14T15:21:02.895Z,98955.22
2022-12-14T15:23:07.235Z,98957.53
2022-12-14T15:25:11.558Z,98951.81
2022-12-14T15:27:15.926Z,98944.94
2022-12-14T15:29:20.220Z,98931.08
2022-12-14T15:31:24.763Z,98931.48
2022-12-14T15:33:30.093Z,98923.44
2022-12-14T15:35:35.530Z,98917.59
2022-12-14T15:37:39.882Z,98911.63
2022-12-14T15:39:44.206Z,98908.06
2022-12-14T15:41:50.179Z,98899.14
2022-12-14T15:44:00.857Z,98904.6
2022-12-14T15:46:05.794Z,98898.81
2022-12-14T15:48:10.561Z,98889.84
2022-12-14T15:50:16.085Z,98881.73
2022-12-14T15:52:20.661Z,98884.42
2022-12-14T15:54:25.424Z,98882.84
2022-12-14T15:56:30.948Z,98876.7
2022-12-14T15:58:36.120Z,98882.8
2022-12-14T16:00:41.136Z,98879.5
2022-12-14T16:02:46.749Z,98876.95
2022-12-14T16:04:52.628Z,98877.52
2022-12-14T16:07:08.918Z,98881.34
2022-12-14T16:09:13.660Z,98884.64
2022-12-14T16:11:18.599Z,98871.77
2022-12-14T16:13:23.023Z,98863.65
2022-12-14T16:15:27.319Z,98866.05
2022-12-14T16:17:31.771Z,98867.62
2022-12-14T16:20:00.422Z,98884.59
2022-12-14T16:22:06.523Z,98879.26
2022-12-14T16:24:12.141Z,98866.91
2022-12-14T16:26:17.248Z,98864.91
2022-12-14T16:28:22.196Z,98869.41
2022-12-14T16:30:26.593Z,98867.13
2022-12-14T16:32:31.813Z,98870.6
2022-12-14T16:34:36.950Z,98869.87
2022-12-14T16:36:42.096Z,98871.77
2022-12-14T16:39:18.975Z,98868.59
2022-12-14T16:41:23.916Z,98869.26
2022-12-14T16:43:29.800Z,98867.79
2022-12-14T16:45:35.392Z,98862.48
2022-12-14T16:47:40.458Z,98864.77
2022-12-14T16:49:46.290Z,98867.22
2022-12-14T16:52:08.948Z,98860.34
2022-12-14T16:54:13.500Z,98856.22
2022-12-14T16:56:17.803Z,98863.16
2022-12-14T16:58:22.256Z,98862.98
2022-12-14T17:00:28.587Z,98860.2
2022-12-14T17:02:34.261Z,98856.21
2022-12-14T17:04:41.481Z,98855.94
2022-12-14T17:06:47.793Z,98855.7
2022-12-14T17:08:52.977Z,98867.04
2022-12-14T17:10:57.249Z,98874.39
2022-12-14T17:13:01.556Z,98870.93
2022-12-14T17:15:06.586Z,98863.2
2022-12-14T17:17:11.096Z,98867.78
2022-12-14T17:19:15.640Z,98865.98
2022-12-14T17:21:21.216Z,98862.96
2022-12-14T17:23:25.514Z,98863.14
2022-12-14T17:25:32.548Z,98861.11
2022-12-14T17:27:38.772Z,98852.52
2022-12-14T17:29:43.935Z,98856.48
2022-12-14T17:31:53.321Z,98859.13
2022-12-14T17:33:58.514Z,98863.68
2022-12-14T17:36:04.299Z,98857.38
2022-12-14T17:38:09.519Z,98853.01
2022-12-14T17:40:14.779Z,98843.23
2022-12-14T17:42:20.617Z,98844.2
2022-12-14T17:44:25.767Z,98840.33
2022-12-14T17:46:30.391Z,98845.98
2022-12-14T17:48:36.946Z,98844.9
2022-12-14T17:50:41.345Z,98844.17
2022-12-14T17:52:47.320Z,98843.22
2022-12-14T17:54:51.659Z,98836.91
2022-12-14T17:56:57.091Z,98833.88
2022-12-14T17:59:02.663Z,98842.2
2022-12-14T18:01:08.073Z,98842.03
2022-12-14T18:03:15.490Z,98841.05
2022-12-14T18:05:21.068Z,98842.66
2022-12-14T18:07:26.435Z,98840.61
2022-12-14T18:09:30.835Z,98842.09
2022-12-14T18:11:35.279Z,98837.31
2022-12-14T18:13:45.514Z,98829
2022-12-14T18:15:54.306Z,98832.5
2022-12-14T18:17:59.651Z,98833.52
2022-12-14T18:20:06.692Z,98832.55
2022-12-14T18:22:13.380Z,98827.84
2022-12-14T18:24:27.755Z,98828.81
2022-12-14T18:26:32.304Z,98837.75
2022-12-14T18:28:36.740Z,98833.83
2022-12-14T18:30:49.708Z,98833.45
2022-12-14T18:32:55.426Z,98834.41
2022-12-14T18:35:00.444Z,98831.73
2022-12-14T18:37:05.740Z,98825.64
2022-12-14T18:39:10.814Z,98824.16
2022-12-14T18:41:16.334Z,98820.63
2022-12-14T18:43:21.572Z,98830.02
2022-12-14T18:45:26.009Z,98824.56
2022-12-14T18:47:47.000Z,98823.88
2022-12-14T18:49:52.351Z,98824.34
2022-12-14T18:51:57.678Z,98825.59
2022-12-14T18:54:02.529Z,98827.4
2022-12-14T18:56:08.232Z,98827.7
2022-12-14T18:58:13.057Z,98830.55
2022-12-14T19:00:17.652Z,98824.3
2022-12-14T19:02:22.514Z,98821.69
2022-12-14T19:04:27.962Z,98819.53
2022-12-14T19:06:49.369Z,98822.68
2022-12-14T19:08:54.443Z,98821.38
2022-12-14T19:11:00.298Z,98818.41
2022-12-14T19:13:06.043Z,98816.78
2022-12-14T19:15:10.856Z,98819.92
2022-12-14T19:17:15.623Z,98815.02
2022-12-14T19:19:27.712Z,98816.39
2022-12-14T19:21:42.969Z,98813.19
2022-12-14T19:23:47.514Z,98819.73
2022-12-14T19:25:51.968Z,98814.01
2022-12-14T19:28:33.449Z,98812.92
2022-12-14T19:30:38.436Z,98814.83
2022-12-14T19:32:43.031Z,98815.06
2022-12-14T19:34:52.961Z,98806.85
2022-12-14T19:36:57.786Z,98802.3
2022-12-14T19:39:03.282Z,98800.31
2022-12-14T19:41:07.721Z,98798.59
2022-12-14T19:43:12.649Z,98801.72
2022-12-14T19:45:17.326Z,98802.35
2022-12-14T19:47:22.022Z,98799.56
2022-12-14T19:49:27.831Z,98800.41
2022-12-14T19:51:32.793Z,98798.16
2022-12-14T19:53:37.574Z,98803.36
2022-12-14T19:55:42.034Z,98803.45
2022-12-14T19:57:47.345Z,98804.56
2022-12-14T19:59:52.030Z,98808.45
2022-12-14T20:01:57.820Z,98807.7
2022-12-14T20:04:02.889Z,98807.48
2022-12-14T20:06:07.411Z,98814.77
2022-12-14T20:08:11.822Z,98814.02
2022-12-14T20:10:16.222Z,98817.36
2022-12-14T20:12:20.564Z,98818.91
2022-12-14T20:14:25.112Z,98822.09
2022-12-14T20:16:29.920Z,98826.31
2022-12-14T20:18:34.630Z,98822.95
2022-12-14T20:20:39.298Z,98824.5
2022-12-14T20:22:43.688Z,98825.23
2022-12-14T20:24:48.631Z,98829.08
2022-12-14T20:26:53.021Z,98828.17
2022-12-14T20:28:57.371Z,98829.39
2022-12-14T20:31:02.058Z,98830.45
2022-12-14T20:33:06.993Z,98825.84
2022-12-14T20:35:11.948Z,98823.44
2022-12-14T20:37:17.382Z,98825.53
2022-12-14T20:39:22.051Z,98825.67
2022-12-14T20:41:26.546Z,98826.64
2022-12-14T20:43:31.939Z,98828.55
2022-12-14T20:45:36.945Z,98827.7
2022-12-14T20:47:41.365Z,98829.03
2022-12-14T20:49:45.795Z,98832.34
2022-12-14T20:51:50.369Z,98827.98
2022-12-14T20:53:55.212Z,98841.84
2022-12-14T20:55:59.945Z,98826.91
2022-12-14T20:58:04.268Z,98824.84
2022-12-14T21:00:08.625Z,98825.41
2022-12-14T21:02:13.371Z,98824.22
2022-12-14T21:04:18.013Z,98824.19
2022-12-14T21:06:22.389Z,98826.59
2022-12-14T21:08:26.840Z,98829.37
2022-12-14T21:10:31.216Z,98829.94
2022-12-14T21:12:35.559Z,98827.41
2022-12-14T21:14:40.000Z,98826.38
2022-12-14T21:16:44.514Z,98827.92
2022-12-14T21:18:48.995Z,98826.95
2022-12-14T21:20:53.333Z,98825
2022-12-14T21:22:57.742Z,98822.56
2022-12-14T21:25:06.887Z,98822.47
2022-12-14T21:27:11.612Z,98824.3
2022-12-14T21:29:15.973Z,98822.75
2022-12-14T21:31:20.395Z,98820.13
2022-12-14T21:33:24.869Z,98818.06
2022-12-14T21:35:29.220Z,98822.27
2022-12-14T21:37:33.555Z,98827.72
2022-12-14T21:39:37.876Z,98831.64
2022-12-14T21:41:42.240Z,98831.58
2022-12-14T21:43:46.625Z,98829.77
2022-12-14T21:45:51.127Z,98829.55
2022-12-14T21:47:55.600Z,98832.37
2022-12-14T21:50:00.119Z,98832.47
2022-12-14T21:52:08.518Z,98831.34
2022-12-14T21:54:13.038Z,98829.3
2022-12-14T21:56:17.351Z,98831.81
2022-12-14T21:58:21.716Z,98831.63
2022-12-14T22:00:26.036Z,98828.79
2022-12-14T22:02:30.918Z,98829.28
2022-12-14T22:04:40.692Z,98831.05
2022-12-14T22:06:45.011Z,98833.8
2022-12-14T22:08:49.331Z,98836.56
2022-12-14T22:10:53.693Z,98840.05
2022-12-14T22:12:58.008Z,98836.22
2022-12-14T22:15:02.325Z,98833.25
2022-12-14T22:17:06.724Z,98836.19
2022-12-14T22:19:11.036Z,98839.17
2022-12-14T22:21:15.321Z,98841.05
2022-12-14T22:23:19.631Z,98840.13
2022-12-14T22:25:23.905Z,98840
2022-12-14T22:27:28.223Z,98839.9
2022-12-14T22:29:32.567Z,98845.08
2022-12-14T22:31:36.998Z,98844.28
2022-12-14T22:33:41.430Z,98838.56
2022-12-14T22:35:45.741Z,98839.64
2022-12-14T22:37:50.060Z,98844.55
2022-12-14T22:39:54.427Z,98844.66
2022-12-14T22:41:58.767Z,98850.57
2022-12-14T22:44:03.047Z,98843.05
2022-12-14T22:46:07.458Z,98842.55
2022-12-14T22:48:11.869Z,98844.64
2022-12-14T22:50:16.213Z,98843
2022-12-14T22:52:25.718Z,98839.33
2022-12-14T22:54:30.086Z,98844.19
2022-12-14T22:56:34.390Z,98843.56
2022-12-14T22:58:38.714Z,98847.55
2022-12-14T23:00:43.035Z,98849.32
2022-12-14T23:02:49.462Z,98848.41
2022-12-14T23:04:53.997Z,98849.72
2022-12-14T23:06:58.354Z,98848.74
2022-12-14T23:09:02.691Z,98847.56
2022-12-14T23:11:07.001Z,98849.59
2022-12-14T23:13:11.334Z,98844.88
2022-12-14T23:15:15.717Z,98845
2022-12-14T23:17:20.028Z,98844.25
2022-12-14T23:19:24.318Z,98847.2
2022-12-14T23:21:28.708Z,98848.05
2022-12-14T23:23:33.905Z,98849.94
2022-12-14T23:25:38.931Z,98850.23
2022-12-14T23:27:43.259Z,98847.78
2022-12-14T23:29:47.546Z,98844.58
2022-12-14T23:31:51.871Z,98849.83
2022-12-14T23:33:56.156Z,98853.12
2022-12-14T23:36:00.454Z,98850.84
2022-12-14T23:38:04.776Z,98851.83
2022-12-14T23:40:09.099Z,98854.14
2022-12-14T23:42:13.426Z,98858.59
2022-12-14T23:44:17.711Z,98869.11
2022-12-14T23:46:22.372Z,98872.95
2022-12-14T23:48:26.937Z,98870.71
2022-12-14T23:50:31.236Z,98868.66
2022-12-14T23:52:35.553Z,98872.23
2022-12-14T23:54:39.813Z,98876.81
2022-12-14T23:56:44.085Z,98871.84
2022-12-14T23:58:48.396Z,98873.84
